createdAt,value
2019-05-15T00:00:40.948Z,2.10
2019-05-15T00:03:16.381Z,1.80
2019-05-15T00:05:49.694Z,2.17
2019-05-15T00:08:22.762Z,1.90
2019-05-15T00:10:55.325Z,2.20
2019-05-15T00:13:28.340Z,2.10
2019-05-15T00:16:00.996Z,3.10
2019-05-15T00:18:33.679Z,6.87
2019-05-15T00:21:08.955Z,10.67
2019-05-15T00:23:40.150Z,3.77
2019-05-15T00:26:12.834Z,3.53
2019-05-15T00:28:47.870Z,2.87
2019-05-15T00:31:19.952Z,2.40
2019-05-15T00:33:52.612Z,2.37
2019-05-15T00:36:24.866Z,2.70
2019-05-15T00:38:59.037Z,1.90
2019-05-15T00:41:31.880Z,2.00
2019-05-15T00:44:04.561Z,1.90
2019-05-15T00:46:38.443Z,1.70
2019-05-15T00:49:11.581Z,1.83
2019-05-15T00:51:44.242Z,1.97
2019-05-15T00:54:18.985Z,2.43
2019-05-15T00:56:51.124Z,5.57
2019-05-15T00:59:26.798Z,1.77
2019-05-15T01:01:59.455Z,1.87
2019-05-15T01:04:32.437Z,2.43
2019-05-15T01:07:05.539Z,1.67
2019-05-15T01:09:38.689Z,2.07
2019-05-15T01:12:12.736Z,2.17
2019-05-15T01:14:48.802Z,2.20
2019-05-15T01:17:20.966Z,2.30
2019-05-15T01:19:53.644Z,2.60
2019-05-15T01:22:28.525Z,9.93
2019-05-15T01:25:01.968Z,17.83
2019-05-15T01:27:34.656Z,5.93
2019-05-15T01:30:09.411Z,2.57
2019-05-15T01:32:42.964Z,3.00
2019-05-15T01:35:17.959Z,2.30
2019-05-15T01:37:50.988Z,2.13
2019-05-15T01:40:23.672Z,1.90
2019-05-15T01:42:58.267Z,2.33
2019-05-15T01:45:31.289Z,2.40
2019-05-15T01:48:04.990Z,2.17
2019-05-15T01:50:38.947Z,2.43
2019-05-15T01:53:12.300Z,2.33
2019-05-15T01:55:44.965Z,19.43
2019-05-15T01:58:18.692Z,30.97
2019-05-15T02:00:52.681Z,17.47
2019-05-15T02:03:25.420Z,5.63
2019-05-15T02:05:58.664Z,4.13
2019-05-15T02:08:31.071Z,5.17
2019-05-15T02:11:03.334Z,3.07
2019-05-15T02:13:36.177Z,3.03
2019-05-15T02:16:09.379Z,2.33
2019-05-15T02:18:42.056Z,2.70
2019-05-15T02:21:14.727Z,2.30
2019-05-15T02:23:48.149Z,2.30
2019-05-15T02:26:21.312Z,2.47
2019-05-15T02:28:54.006Z,5.27
2019-05-15T02:31:29.807Z,13.77
2019-05-15T02:34:01.001Z,7.33
2019-05-15T02:36:33.676Z,2.90
2019-05-15T02:39:09.544Z,2.60
2019-05-15T02:41:42.209Z,2.83
2019-05-15T02:44:14.945Z,2.30
2019-05-15T02:46:49.967Z,2.63
2019-05-15T02:49:21.501Z,2.47
2019-05-15T02:51:54.155Z,2.57
2019-05-15T02:54:29.800Z,2.60
2019-05-15T02:57:01.147Z,2.60
2019-05-15T02:59:33.818Z,2.63
2019-05-15T03:02:09.856Z,2.50
2019-05-15T03:04:40.733Z,4.77
2019-05-15T03:07:13.485Z,7.37
2019-05-15T03:09:49.445Z,8.73
2019-05-15T03:12:20.590Z,3.73
2019-05-15T03:14:53.371Z,2.63
2019-05-15T03:17:26.041Z,2.90
2019-05-15T03:19:59.003Z,2.97
2019-05-15T03:22:34.694Z,2.50
2019-05-15T03:25:14.619Z,2.33
2019-05-15T03:27:50.945Z,2.53
2019-05-15T03:31:06.874Z,2.70
2019-05-15T03:36:31.958Z,2.80
2019-05-15T03:39:09.537Z,4.53
2019-05-15T03:41:43.212Z,6.10
2019-05-15T03:44:22.771Z,3.77
2019-05-15T03:46:55.513Z,3.03
2019-05-15T03:49:29.444Z,2.87
2019-05-15T03:52:02.120Z,2.37
2019-05-15T03:54:34.904Z,3.13
2019-05-15T03:57:09.794Z,3.00
2019-05-15T03:59:41.373Z,2.63
2019-05-15T04:02:13.858Z,3.27
2019-05-15T04:04:49.813Z,2.77
2019-05-15T04:07:21.882Z,3.30
2019-05-15T04:09:54.663Z,2.80
2019-05-15T04:12:28.991Z,2.97
2019-05-15T04:15:01.760Z,3.13
2019-05-15T04:17:34.741Z,6.27
2019-05-15T04:20:09.861Z,4.97
2019-05-15T04:22:42.973Z,4.10
2019-05-15T04:25:18.905Z,3.47
2019-05-15T04:27:50.537Z,2.70
2019-05-15T04:30:23.162Z,3.43
2019-05-15T04:32:55.827Z,3.67
2019-05-15T04:35:29.167Z,3.10
2019-05-15T04:38:01.914Z,3.43
2019-05-15T04:40:34.589Z,3.63
2019-05-15T04:43:09.981Z,3.37
2019-05-15T04:45:41.896Z,3.50
2019-05-15T04:48:14.479Z,3.40
2019-05-15T04:50:49.991Z,3.07
2019-05-15T04:53:25.563Z,5.73
2019-05-15T04:55:59.752Z,22.37
2019-05-15T04:58:32.396Z,16.90
2019-05-15T05:01:05.037Z,6.60
2019-05-15T05:03:39.423Z,4.27
2019-05-15T05:06:12.445Z,4.53
2019-05-15T05:08:45.212Z,3.73
2019-05-15T05:11:20.597Z,3.67
2019-05-15T05:13:53.693Z,3.40
2019-05-15T05:16:29.356Z,3.73
2019-05-15T05:19:00.736Z,3.57
2019-05-15T05:21:33.327Z,3.77
2019-05-15T05:24:08.019Z,3.60
2019-05-15T05:26:41.031Z,4.53
2019-05-15T05:29:13.718Z,5.07
2019-05-15T05:31:49.021Z,12.90
2019-05-15T05:34:20.818Z,25.33
2019-05-15T05:36:53.487Z,4.70
2019-05-15T05:39:26.166Z,3.70
2019-05-15T05:41:58.862Z,4.30
2019-05-15T05:44:31.592Z,3.50
2019-05-15T05:47:04.264Z,3.97
2019-05-15T05:49:38.279Z,3.13
2019-05-15T05:52:10.911Z,3.20
2019-05-15T05:54:43.583Z,3.33
2019-05-15T05:57:16.259Z,3.40
2019-05-15T05:59:49.140Z,2.80
2019-05-15T06:02:22.016Z,3.00
2019-05-15T06:04:54.811Z,2.50
2019-05-15T06:07:27.947Z,2.93
2019-05-15T06:10:00.678Z,6.60
2019-05-15T06:12:33.359Z,10.60
2019-05-15T06:15:10.037Z,7.70
2019-05-15T06:17:43.216Z,3.47
2019-05-15T06:20:18.425Z,3.37
2019-05-15T06:22:50.425Z,3.37
2019-05-15T06:25:23.097Z,3.37
2019-05-15T06:27:58.209Z,3.40
2019-05-15T06:30:31.426Z,3.43
2019-05-15T06:33:09.278Z,3.10
2019-05-15T06:35:39.417Z,3.50
2019-05-15T06:38:12.437Z,3.70
2019-05-15T06:40:45.115Z,3.50
2019-05-15T06:43:19.778Z,4.00
2019-05-15T06:45:53.854Z,3.70
2019-05-15T06:48:28.713Z,6.03
2019-05-15T06:51:01.170Z,19.43
2019-05-15T06:53:34.168Z,9.23
2019-05-15T06:56:07.924Z,4.67
2019-05-15T06:58:40.785Z,3.33
2019-05-15T07:01:13.705Z,3.57
2019-05-15T07:03:48.472Z,3.83
2019-05-15T07:06:20.610Z,3.53
2019-05-15T07:08:53.180Z,3.50
2019-05-15T07:11:28.557Z,3.17
2019-05-15T07:14:02.229Z,3.17
2019-05-15T07:16:34.901Z,3.43
2019-05-15T07:19:08.340Z,3.50
2019-05-15T07:21:41.077Z,2.70
2019-05-15T07:24:13.299Z,3.87
2019-05-15T07:26:48.398Z,8.03
2019-05-15T07:29:20.256Z,8.17
2019-05-15T07:31:52.919Z,9.60
2019-05-15T07:34:25.508Z,4.60
2019-05-15T07:36:59.223Z,3.77
2019-05-15T07:39:31.983Z,3.30
2019-05-15T07:42:04.671Z,3.83
2019-05-15T07:44:38.902Z,4.33
2019-05-15T07:47:11.861Z,3.67
2019-05-15T07:49:44.540Z,3.53
2019-05-15T07:52:19.330Z,3.50
2019-05-15T07:54:51.944Z,3.53
2019-05-15T07:57:24.634Z,3.93
2019-05-15T07:59:58.822Z,3.90
2019-05-15T08:02:31.516Z,4.30
2019-05-15T08:05:04.836Z,7.93
2019-05-15T08:07:38.844Z,19.63
2019-05-15T08:10:18.256Z,5.83
2019-05-15T08:12:50.526Z,3.87
2019-05-15T08:15:24.539Z,4.57
2019-05-15T08:18:05.424Z,4.43
2019-05-15T08:20:31.546Z,4.33
2019-05-15T08:23:04.112Z,4.20
2019-05-15T08:25:38.782Z,3.93
2019-05-15T08:28:12.248Z,3.70
2019-05-15T08:30:44.913Z,3.70
2019-05-15T08:33:18.020Z,4.17
2019-05-15T08:35:52.021Z,3.40
2019-05-15T08:38:24.521Z,3.50
2019-05-15T08:40:59.194Z,3.60
2019-05-15T08:43:31.590Z,8.50
2019-05-15T08:46:04.377Z,23.50
2019-05-15T08:48:38.300Z,54.30
2019-05-15T08:51:11.374Z,68.50
2019-05-15T08:53:44.046Z,18.13
2019-05-15T08:56:19.127Z,16.80
2019-05-15T08:58:51.037Z,8.53
2019-05-15T09:01:23.717Z,10.90
2019-05-15T09:03:58.205Z,14.20
2019-05-15T09:06:30.311Z,8.07
2019-05-15T09:09:02.546Z,7.77
2019-05-15T09:11:35.252Z,6.20
2019-05-15T09:14:08.303Z,6.03
2019-05-15T09:16:41.236Z,5.97
2019-05-15T09:19:13.768Z,5.13
2019-05-15T09:21:48.824Z,5.03
2019-05-15T09:24:21.016Z,12.63
2019-05-15T09:26:53.694Z,10.60
2019-05-15T09:29:28.403Z,5.40
2019-05-15T09:32:01.906Z,6.27
2019-05-15T09:34:47.948Z,5.10
2019-05-15T09:37:09.958Z,5.73
2019-05-15T09:39:42.712Z,5.63
2019-05-15T09:42:17.845Z,17.27
2019-05-15T09:44:49.813Z,17.70
2019-05-15T09:47:22.592Z,10.30
2019-05-15T09:49:55.281Z,6.70
2019-05-15T09:52:29.982Z,7.33
2019-05-15T09:55:02.110Z,7.20
2019-05-15T09:57:34.945Z,7.00
2019-05-15T10:00:13.603Z,7.87
2019-05-15T10:02:48.617Z,15.53
2019-05-15T10:05:20.980Z,6.20
2019-05-15T10:07:54.369Z,6.70
2019-05-15T10:10:28.462Z,6.43
2019-05-15T10:13:01.517Z,6.87
2019-05-15T10:15:34.357Z,6.77
2019-05-15T10:18:09.748Z,6.50
2019-05-15T10:20:41.659Z,6.57
2019-05-15T10:23:14.536Z,6.40
2019-05-15T10:25:48.545Z,6.60
2019-05-15T10:28:21.633Z,6.67
2019-05-15T10:30:54.223Z,6.60
2019-05-15T10:33:29.427Z,6.37
2019-05-15T10:36:01.168Z,6.20
2019-05-15T10:38:34.055Z,6.87
2019-05-15T10:41:13.876Z,8.10
2019-05-15T10:43:46.382Z,9.33
2019-05-15T10:46:15.108Z,6.80
2019-05-15T10:48:49.339Z,5.70
2019-05-15T10:51:22.302Z,6.70
2019-05-15T10:53:55.095Z,7.40
2019-05-15T10:56:29.182Z,7.03
2019-05-15T10:59:03.418Z,7.37
2019-05-15T11:01:38.698Z,6.23
2019-05-15T11:04:11.339Z,6.83
2019-05-15T11:06:43.908Z,7.93
2019-05-15T11:09:18.467Z,8.60
2019-05-15T11:11:51.575Z,9.23
2019-05-15T11:14:25.032Z,7.20
2019-05-15T11:16:58.943Z,8.07
2019-05-15T11:19:36.089Z,10.00
2019-05-15T11:22:06.136Z,7.93
2019-05-15T11:24:38.774Z,7.93
2019-05-15T11:27:11.220Z,9.63
2019-05-15T11:29:43.970Z,9.47
2019-05-15T11:32:16.837Z,9.40
2019-05-15T11:34:49.527Z,9.40
2019-05-15T11:37:22.300Z,9.93
2019-05-15T11:39:55.106Z,7.77
2019-05-15T11:42:29.129Z,8.83
2019-05-15T11:45:01.887Z,7.07
2019-05-15T11:47:34.570Z,7.97
2019-05-15T11:50:08.589Z,6.93
2019-05-15T11:52:41.549Z,7.40
2019-05-15T11:55:14.172Z,13.63
2019-05-15T11:57:50.924Z,9.00
2019-05-15T12:00:26.713Z,8.93
2019-05-15T12:02:58.236Z,9.70
2019-05-15T12:05:29.777Z,8.83
2019-05-15T12:08:02.466Z,8.90
2019-05-15T12:10:35.333Z,7.43
2019-05-15T12:13:09.743Z,8.23
2019-05-15T12:15:42.227Z,7.63
2019-05-15T12:18:15.105Z,7.63
2019-05-15T12:20:48.724Z,9.70
2019-05-15T12:23:22.122Z,9.80
2019-05-15T12:25:54.781Z,11.27
2019-05-15T12:28:29.551Z,7.90
2019-05-15T12:31:01.679Z,8.57
2019-05-15T12:33:34.349Z,9.93
2019-05-15T12:36:10.160Z,11.03
2019-05-15T12:38:41.362Z,9.10
2019-05-15T13:01:48.469Z,12.47
2019-05-15T13:04:21.253Z,9.37
2019-05-15T13:07:10.485Z,9.30
2019-05-15T13:09:27.874Z,9.03
2019-05-15T13:12:01.954Z,8.10
2019-05-15T13:14:35.846Z,8.27
2019-05-15T13:17:08.740Z,8.50
2019-05-15T13:19:41.423Z,8.63
2019-05-15T13:22:18.256Z,9.60
2019-05-15T13:24:50.136Z,8.93
2019-05-15T13:27:22.956Z,10.43
2019-05-15T13:29:58.068Z,11.50
2019-05-15T13:32:32.641Z,7.47
2019-05-15T13:35:10.000Z,8.50
2019-05-15T13:37:43.073Z,8.20
2019-05-15T13:40:18.665Z,7.57
2019-05-15T13:42:51.924Z,8.57
2019-05-15T13:45:45.297Z,8.27
2019-05-15T13:48:30.993Z,9.13
2019-05-15T13:54:42.065Z,10.77
2019-05-15T14:40:43.881Z,20.00
2019-05-15T14:46:54.528Z,16.33
2019-05-15T14:49:52.815Z,12.57
2019-05-15T14:52:41.988Z,13.20
2019-05-15T14:58:44.128Z,8.23
2019-05-15T15:01:33.445Z,12.07
2019-05-15T15:07:42.142Z,11.80
2019-05-15T15:13:28.667Z,11.70
2019-05-15T15:19:31.018Z,9.33
2019-05-15T15:22:18.578Z,9.77
2019-05-15T15:25:06.237Z,8.80
2019-05-15T15:27:53.920Z,8.10
2019-05-15T15:30:33.593Z,7.70
2019-05-15T15:33:12.299Z,9.60
2019-05-15T15:35:58.150Z,17.73
2019-05-15T15:38:43.132Z,12.03
2019-05-15T15:41:09.709Z,10.60
2019-05-15T15:43:42.387Z,9.70
2019-05-15T15:46:15.061Z,12.53
2019-05-15T15:48:48.339Z,10.90
2019-05-15T15:51:22.908Z,9.67
2019-05-15T15:53:55.549Z,13.03
2019-05-15T15:56:29.026Z,6.97
2019-05-15T15:59:02.554Z,7.93
2019-05-15T16:01:36.120Z,7.50
2019-05-15T16:04:10.778Z,9.67
2019-05-15T16:06:43.001Z,14.80
2019-05-15T16:09:18.802Z,38.77
2019-05-15T16:11:52.804Z,11.80
2019-05-15T16:14:25.696Z,10.83
2019-05-15T16:16:58.978Z,8.57
2019-05-15T16:19:32.085Z,11.60
2019-05-15T16:22:04.780Z,11.20
2019-05-15T16:24:38.571Z,11.73
2019-05-15T16:27:12.717Z,15.27
2019-05-15T16:29:45.402Z,11.70
2019-05-15T16:32:21.098Z,9.33
2019-05-15T16:34:52.350Z,12.13
2019-05-15T16:37:24.929Z,21.37
2019-05-15T16:39:59.879Z,13.40
2019-05-15T16:42:32.036Z,15.60
2019-05-15T16:45:09.377Z,11.27
2019-05-15T16:47:41.177Z,12.03
2019-05-15T16:50:14.062Z,7.93
2019-05-15T16:52:58.406Z,6.60
2019-05-15T16:55:34.379Z,7.10
2019-05-15T16:58:12.986Z,6.30
2019-05-15T17:01:18.645Z,4.90
2019-05-15T17:04:21.209Z,6.93
2019-05-15T17:14:03.408Z,5.33
2019-05-15T17:16:48.077Z,5.83
2019-05-15T17:19:30.321Z,4.30
2019-05-15T17:22:04.276Z,4.90
2019-05-15T17:24:42.257Z,5.07
2019-05-15T17:27:22.801Z,6.77
2019-05-15T17:30:02.603Z,8.37
2019-05-15T17:32:45.905Z,7.83
2019-05-15T17:35:27.782Z,7.33
2019-05-15T17:38:05.209Z,7.50
2019-05-15T17:40:38.371Z,5.83
2019-05-15T17:43:10.925Z,5.57
2019-05-15T17:45:43.582Z,5.73
2019-05-15T17:48:16.193Z,6.20
2019-05-15T17:50:52.500Z,6.60
2019-05-15T17:53:23.080Z,6.90
2019-05-15T17:55:58.597Z,7.70
2019-05-15T17:58:30.999Z,7.53
2019-05-15T18:01:03.685Z,7.73
2019-05-15T18:03:39.013Z,8.17
2019-05-15T18:06:11.416Z,17.80
2019-05-15T18:08:44.387Z,13.27
2019-05-15T18:11:18.696Z,10.63
2019-05-15T18:13:51.599Z,10.27
2019-05-15T18:16:24.267Z,8.10
2019-05-15T18:18:58.583Z,6.43
2019-05-15T18:21:32.600Z,6.67
2019-05-15T18:24:09.299Z,6.80
2019-05-15T18:26:42.476Z,7.20
2019-05-15T18:29:15.132Z,6.80
2019-05-15T18:31:48.103Z,6.73
2019-05-15T18:34:21.229Z,5.87
2019-05-15T18:36:53.832Z,6.90
2019-05-15T18:39:28.311Z,9.40
2019-05-15T18:42:00.899Z,6.37
2019-05-15T18:44:33.766Z,6.43
2019-05-15T18:47:08.692Z,6.03
2019-05-15T18:49:41.389Z,7.03
2019-05-15T18:52:14.089Z,7.90
2019-05-15T18:54:48.095Z,6.83
2019-05-15T18:57:21.063Z,7.37
2019-05-15T18:59:55.405Z,6.30
2019-05-15T19:02:28.268Z,6.33
2019-05-15T19:05:00.919Z,7.20
2019-05-15T19:07:40.683Z,7.00
2019-05-15T19:10:18.514Z,8.43
2019-05-15T19:12:50.773Z,12.53
2019-05-15T19:15:23.443Z,12.43
2019-05-15T19:18:00.310Z,9.20
2019-05-15T19:20:34.840Z,7.80
2019-05-15T19:23:10.002Z,8.67
2019-05-15T19:25:42.457Z,7.03
2019-05-15T19:28:15.238Z,7.83
2019-05-15T19:30:48.325Z,7.73
2019-05-15T19:33:33.423Z,6.53
2019-05-15T19:35:57.591Z,8.70
2019-05-15T19:38:31.172Z,10.40
2019-05-15T19:41:06.587Z,20.37
2019-05-15T19:43:38.582Z,10.03
2019-05-15T19:46:12.215Z,6.43
2019-05-15T19:48:48.794Z,7.20
2019-05-15T19:51:21.762Z,6.50
2019-05-15T19:53:54.931Z,7.03
2019-05-15T19:56:27.810Z,7.23
2019-05-15T19:59:00.734Z,8.07
2019-05-15T20:01:34.608Z,7.23
2019-05-15T20:04:08.425Z,7.87
2019-05-15T20:06:41.398Z,7.23
2019-05-15T20:09:15.521Z,7.23
2019-05-15T20:11:48.392Z,7.73
2019-05-15T20:14:21.079Z,16.17
2019-05-15T20:16:53.757Z,12.70
2019-05-15T20:19:28.607Z,6.23
2019-05-15T20:22:00.854Z,5.93
2019-05-15T20:24:33.829Z,5.23
2019-05-15T20:27:08.504Z,5.63
2019-05-15T20:29:40.695Z,5.17
2019-05-15T20:32:13.281Z,5.43
2019-05-15T20:34:48.208Z,5.87
2019-05-15T20:37:21.433Z,5.70
2019-05-15T20:39:54.526Z,4.60
2019-05-15T20:42:27.306Z,4.80
2019-05-15T20:44:59.976Z,4.67
2019-05-15T20:47:32.971Z,6.03
2019-05-15T20:50:10.192Z,21.90
2019-05-15T20:52:42.795Z,22.63
2019-05-15T20:55:15.909Z,5.57
2019-05-15T20:57:50.432Z,4.93
2019-05-15T21:00:23.434Z,4.80
2019-05-15T21:02:57.701Z,4.73
2019-05-15T21:05:30.023Z,5.47
2019-05-15T21:08:03.003Z,4.70
2019-05-15T21:10:35.741Z,5.17
2019-05-15T21:13:10.013Z,4.77
2019-05-15T21:15:42.688Z,4.70
2019-05-15T21:18:15.869Z,4.30
2019-05-15T21:20:49.895Z,4.07
2019-05-15T21:23:22.566Z,4.50
2019-05-15T21:25:55.237Z,7.13
2019-05-15T21:28:29.868Z,9.73
2019-05-15T21:31:02.754Z,10.80
2019-05-15T21:33:35.842Z,4.37
2019-05-15T21:36:08.511Z,4.00
2019-05-15T21:38:41.098Z,4.40
2019-05-15T21:41:13.873Z,3.90
2019-05-15T21:43:48.192Z,4.17
2019-05-15T21:46:21.171Z,4.30
2019-05-15T21:48:53.753Z,3.80
2019-05-15T21:51:28.116Z,3.97
2019-05-15T21:54:01.287Z,4.17
2019-05-15T21:56:34.256Z,5.87
2019-05-15T21:59:08.197Z,6.50
2019-05-15T22:01:42.266Z,9.23
2019-05-15T22:04:14.844Z,3.83
2019-05-15T22:06:49.057Z,4.53
2019-05-15T22:09:22.976Z,4.23
2019-05-15T22:11:58.375Z,4.10
2019-05-15T22:14:30.690Z,4.47
2019-05-15T22:17:03.465Z,4.40
2019-05-15T22:19:37.968Z,3.93
2019-05-15T22:22:10.138Z,4.20
2019-05-15T22:24:44.066Z,4.50
2019-05-15T22:27:18.005Z,4.97
2019-05-15T22:29:51.159Z,5.00
2019-05-15T22:32:23.955Z,28.97
2019-05-15T22:35:06.950Z,5.37
2019-05-15T22:37:30.940Z,3.53
2019-05-15T22:40:03.527Z,3.50
2019-05-15T22:42:36.243Z,3.40
2019-05-15T22:45:11.975Z,3.27
2019-05-15T22:47:45.039Z,3.80
2019-05-15T22:50:18.883Z,3.70
2019-05-15T22:52:51.934Z,3.50
2019-05-15T22:55:24.710Z,3.33
2019-05-15T22:57:58.659Z,3.43
2019-05-15T23:00:31.705Z,3.90
2019-05-15T23:03:04.259Z,5.03
2019-05-15T23:05:36.974Z,8.17
2019-05-15T23:08:09.743Z,8.80
2019-05-15T23:10:42.782Z,4.40
2019-05-15T23:13:17.815Z,3.97
2019-05-15T23:15:50.453Z,3.80
2019-05-15T23:18:23.144Z,4.10
2019-05-15T23:20:55.912Z,3.33
2019-05-15T23:23:28.652Z,3.40
2019-05-15T23:26:01.882Z,3.63
2019-05-15T23:28:34.665Z,4.30
2019-05-15T23:31:08.287Z,4.07
2019-05-15T23:33:42.839Z,3.73
2019-05-15T23:36:15.470Z,4.07
2019-05-15T23:38:48.361Z,3.60
2019-05-15T23:41:20.934Z,4.27
2019-05-15T23:43:53.813Z,4.33
2019-05-15T23:46:28.669Z,3.97
2019-05-15T23:49:00.906Z,4.47
2019-05-15T23:51:33.849Z,4.30
2019-05-15T23:54:08.112Z,4.07
2019-05-15T23:56:40.391Z,3.90
2019-05-15T23:59:13.065Z,4.30
